sensor_id;sensor_type;location;lat;lon;timestamp;pressure;altitude;pressure_sealevel;temperature;humidity
8069;BME280;4077;43.702;24.896;2023-04-29T00:00:18;99612.69;;;6.12;100.00
8069;BME280;4077;43.702;24.896;2023-04-29T00:02:45;99609.06;;;6.05;100.00
8069;BME280;4077;43.702;24.896;2023-04-29T00:05:10;99603.78;;;6.00;100.00
8069;BME280;4077;43.702;24.896;2023-04-29T00:07:36;99608.72;;;5.94;100.00
8069;BME280;4077;43.702;24.896;2023-04-29T00:10:01;99606.25;;;5.97;100.00
8069;BME280;4077;43.702;24.896;2023-04-29T00:12:27;99596.88;;;5.98;100.00
8069;BME280;4077;43.702;24.896;2023-04-29T00:14:54;99599.34;;;5.95;100.00
8069;BME280;4077;43.702;24.896;2023-04-29T00:17:20;99582.84;;;6.14;100.00
8069;BME280;4077;43.702;24.896;2023-04-29T00:19:45;99586.69;;;5.99;100.00
8069;BME280;4077;43.702;24.896;2023-04-29T00:22:11;99589.31;;;6.02;100.00
8069;BME280;4077;43.702;24.896;2023-04-29T00:24:36;99594.56;;;6.06;100.00
8069;BME280;4077;43.702;24.896;2023-04-29T00:27:02;99594.00;;;6.16;100.00
8069;BME280;4077;43.702;24.896;2023-04-29T00:29:27;99592.09;;;6.37;100.00
8069;BME280;4077;43.702;24.896;2023-04-29T00:31:53;99599.06;;;6.41;100.00
8069;BME280;4077;43.702;24.896;2023-04-29T00:34:18;99586.22;;;6.41;100.00
8069;BME280;4077;43.702;24.896;2023-04-29T00:36:44;99588.22;;;6.51;100.00
8069;BME280;4077;43.702;24.896;2023-04-29T00:39:10;99597.50;;;6.76;100.00
8069;BME280;4077;43.702;24.896;2023-04-29T00:41:35;99589.66;;;6.72;100.00
8069;BME280;4077;43.702;24.896;2023-04-29T00:44:01;99594.81;;;6.72;100.00
8069;BME280;4077;43.702;24.896;2023-04-29T00:46:26;99599.78;;;6.66;100.00
8069;BME280;4077;43.702;24.896;2023-04-29T00:48:52;99601.19;;;6.86;100.00
8069;BME280;4077;43.702;24.896;2023-04-29T00:51:17;99606.91;;;6.76;100.00
8069;BME280;4077;43.702;24.896;2023-04-29T00:53:43;99600.97;;;6.78;100.00
8069;BME280;4077;43.702;24.896;2023-04-29T00:56:09;99604.81;;;6.63;100.00
8069;BME280;4077;43.702;24.896;2023-04-29T00:58:35;99611.59;;;6.61;100.00
8069;BME280;4077;43.702;24.896;2023-04-29T01:01:03;99616.53;;;6.54;100.00
8069;BME280;4077;43.702;24.896;2023-04-29T01:03:31;99620.59;;;6.76;100.00
8069;BME280;4077;43.702;24.896;2023-04-29T01:08:54;99615.84;;;6.90;100.00
8069;BME280;4077;43.702;24.896;2023-04-29T01:11:31;99622.94;;;6.99;100.00
8069;BME280;4077;43.702;24.896;2023-04-29T01:13:59;99628.28;;;7.06;100.00
8069;BME280;4077;43.702;24.896;2023-04-29T01:16:43;99637.25;;;7.21;100.00
8069;BME280;4077;43.702;24.896;2023-04-29T01:21:58;99632.22;;;6.94;100.00
8069;BME280;4077;43.702;24.896;2023-04-29T01:24:24;99625.09;;;6.85;100.00
8069;BME280;4077;43.702;24.896;2023-04-29T01:27:01;99632.41;;;6.71;100.00
8069;BME280;4077;43.702;24.896;2023-04-29T01:29:43;99624.31;;;6.57;100.00
8069;BME280;4077;43.702;24.896;2023-04-29T01:32:16;99618.09;;;6.49;100.00
8069;BME280;4077;43.702;24.896;2023-04-29T01:37:18;99608.75;;;6.51;100.00
8069;BME280;4077;43.702;24.896;2023-04-29T01:45:18;99606.09;;;6.20;100.00
8069;BME280;4077;43.702;24.896;2023-04-29T01:47:46;99617.00;;;6.13;100.00
8069;BME280;4077;43.702;24.896;2023-04-29T01:50:11;99611.84;;;6.13;100.00
8069;BME280;4077;43.702;24.896;2023-04-29T01:52:37;99594.44;;;6.02;100.00
8069;BME280;4077;43.702;24.896;2023-04-29T01:55:03;99605.28;;;6.21;100.00
8069;BME280;4077;43.702;24.896;2023-04-29T01:57:29;99613.59;;;6.14;100.00
8069;BME280;4077;43.702;24.896;2023-04-29T01:59:54;99605.75;;;6.09;100.00
8069;BME280;4077;43.702;24.896;2023-04-29T02:02:21;99607.56;;;6.12;100.00
8069;BME280;4077;43.702;24.896;2023-04-29T02:04:48;99597.84;;;6.01;100.00
8069;BME280;4077;43.702;24.896;2023-04-29T02:07:15;99595.19;;;5.98;100.00
8069;BME280;4077;43.702;24.896;2023-04-29T02:09:40;99603.13;;;6.06;100.00
8069;BME280;4077;43.702;24.896;2023-04-29T02:12:06;99602.97;;;6.01;100.00
8069;BME280;4077;43.702;24.896;2023-04-29T02:14:31;99601.03;;;5.94;100.00
8069;BME280;4077;43.702;24.896;2023-04-29T02:16:58;99590.56;;;5.88;100.00
8069;BME280;4077;43.702;24.896;2023-04-29T02:19:24;99592.19;;;5.86;100.00
8069;BME280;4077;43.702;24.896;2023-04-29T02:21:49;99598.16;;;5.85;100.00
8069;BME280;4077;43.702;24.896;2023-04-29T02:24:15;99593.84;;;5.84;100.00
8069;BME280;4077;43.702;24.896;2023-04-29T02:26:40;99595.56;;;5.84;100.00
8069;BME280;4077;43.702;24.896;2023-04-29T02:29:06;99587.56;;;5.74;100.00
8069;BME280;4077;43.702;24.896;2023-04-29T02:31:31;99597.78;;;5.74;100.00
8069;BME280;4077;43.702;24.896;2023-04-29T02:33:57;99601.28;;;5.76;100.00
8069;BME280;4077;43.702;24.896;2023-04-29T02:36:22;99600.31;;;5.73;100.00
8069;BME280;4077;43.702;24.896;2023-04-29T02:38:48;99596.34;;;5.83;100.00
8069;BME280;4077;43.702;24.896;2023-04-29T02:41:18;99597.31;;;5.86;100.00
8069;BME280;4077;43.702;24.896;2023-04-29T02:43:43;99593.53;;;5.75;100.00
8069;BME280;4077;43.702;24.896;2023-04-29T02:46:09;99594.16;;;5.68;100.00
8069;BME280;4077;43.702;24.896;2023-04-29T02:48:35;99598.56;;;5.72;100.00
8069;BME280;4077;43.702;24.896;2023-04-29T02:51:01;99598.66;;;5.75;100.00
8069;BME280;4077;43.702;24.896;2023-04-29T02:53:26;99602.72;;;5.68;100.00
8069;BME280;4077;43.702;24.896;2023-04-29T02:55:51;99593.25;;;5.66;100.00
8069;BME280;4077;43.702;24.896;2023-04-29T02:58:17;99601.97;;;5.71;100.00
8069;BME280;4077;43.702;24.896;2023-04-29T03:00:42;99605.22;;;5.67;100.00
8069;BME280;4077;43.702;24.896;2023-04-29T03:03:08;99603.50;;;5.66;100.00
8069;BME280;4077;43.702;24.896;2023-04-29T03:05:34;99589.16;;;5.45;100.00
8069;BME280;4077;43.702;24.896;2023-04-29T03:08:00;99601.88;;;5.42;100.00
8069;BME280;4077;43.702;24.896;2023-04-29T03:10:26;99607.75;;;5.40;100.00
8069;BME280;4077;43.702;24.896;2023-04-29T03:12:51;99613.03;;;5.44;100.00
8069;BME280;4077;43.702;24.896;2023-04-29T03:15:16;99612.84;;;5.40;100.00
8069;BME280;4077;43.702;24.896;2023-04-29T03:17:42;99609.22;;;5.33;100.00
8069;BME280;4077;43.702;24.896;2023-04-29T03:20:10;99605.63;;;5.28;100.00
8069;BME280;4077;43.702;24.896;2023-04-29T03:22:35;99621.94;;;5.30;100.00
8069;BME280;4077;43.702;24.896;2023-04-29T03:25:01;99618.44;;;5.28;100.00
8069;BME280;4077;43.702;24.896;2023-04-29T03:27:26;99612.81;;;5.38;100.00
8069;BME280;4077;43.702;24.896;2023-04-29T03:29:52;99617.97;;;5.40;100.00
8069;BME280;4077;43.702;24.896;2023-04-29T03:32:17;99625.44;;;5.34;100.00
8069;BME280;4077;43.702;24.896;2023-04-29T03:34:42;99620.44;;;5.37;100.00
8069;BME280;4077;43.702;24.896;2023-04-29T03:37:08;99622.75;;;5.29;100.00
8069;BME280;4077;43.702;24.896;2023-04-29T03:39:33;99628.47;;;5.22;100.00
8069;BME280;4077;43.702;24.896;2023-04-29T03:41:59;99630.56;;;5.34;100.00
8069;BME280;4077;43.702;24.896;2023-04-29T03:44:25;99636.47;;;5.31;100.00
8069;BME280;4077;43.702;24.896;2023-04-29T03:46:53;99638.81;;;5.25;100.00
8069;BME280;4077;43.702;24.896;2023-04-29T03:49:18;99635.47;;;5.28;100.00
8069;BME280;4077;43.702;24.896;2023-04-29T03:51:43;99641.47;;;5.28;100.00
8069;BME280;4077;43.702;24.896;2023-04-29T03:54:12;99641.38;;;5.25;100.00
8069;BME280;4077;43.702;24.896;2023-04-29T03:56:38;99640.28;;;5.18;100.00
8069;BME280;4077;43.702;24.896;2023-04-29T03:59:03;99646.53;;;5.27;100.00
8069;BME280;4077;43.702;24.896;2023-04-29T04:01:29;99647.19;;;5.21;100.00
8069;BME280;4077;43.702;24.896;2023-04-29T04:03:54;99650.69;;;5.23;100.00
8069;BME280;4077;43.702;24.896;2023-04-29T04:06:20;99638.50;;;5.16;100.00
8069;BME280;4077;43.702;24.896;2023-04-29T04:08:46;99644.53;;;5.18;100.00
8069;BME280;4077;43.702;24.896;2023-04-29T04:11:11;99639.50;;;5.21;100.00
8069;BME280;4077;43.702;24.896;2023-04-29T04:13:42;99643.91;;;5.25;100.00
8069;BME280;4077;43.702;24.896;2023-04-29T04:16:11;99632.50;;;5.41;100.00
8069;BME280;4077;43.702;24.896;2023-04-29T04:18:37;99635.34;;;5.48;100.00
8069;BME280;4077;43.702;24.896;2023-04-29T04:21:07;99637.28;;;5.56;100.00
8069;BME280;4077;43.702;24.896;2023-04-29T04:23:33;99633.19;;;5.61;100.00
8069;BME280;4077;43.702;24.896;2023-04-29T04:25:58;99643.16;;;5.77;100.00
8069;BME280;4077;43.702;24.896;2023-04-29T04:28:23;99637.59;;;5.90;100.00
8069;BME280;4077;43.702;24.896;2023-04-29T04:30:49;99637.97;;;6.01;100.00
8069;BME280;4077;43.702;24.896;2023-04-29T04:33:15;99646.19;;;6.18;100.00
8069;BME280;4077;43.702;24.896;2023-04-29T04:35:41;99641.34;;;6.27;100.00
8069;BME280;4077;43.702;24.896;2023-04-29T04:38:07;99642.41;;;6.34;100.00
8069;BME280;4077;43.702;24.896;2023-04-29T04:40:33;99631.06;;;6.25;100.00
8069;BME280;4077;43.702;24.896;2023-04-29T04:42:58;99650.38;;;6.43;100.00
8069;BME280;4077;43.702;24.896;2023-04-29T04:45:23;99643.66;;;6.46;100.00
8069;BME280;4077;43.702;24.896;2023-04-29T04:47:49;99654.84;;;6.50;100.00
8069;BME280;4077;43.702;24.896;2023-04-29T04:50:14;99648.00;;;6.49;100.00
8069;BME280;4077;43.702;24.896;2023-04-29T04:52:40;99649.06;;;6.55;100.00
8069;BME280;4077;43.702;24.896;2023-04-29T04:55:05;99635.69;;;6.66;100.00
8069;BME280;4077;43.702;24.896;2023-04-29T04:57:31;99640.31;;;6.79;100.00
8069;BME280;4077;43.702;24.896;2023-04-29T04:59:56;99636.31;;;6.87;100.00
8069;BME280;4077;43.702;24.896;2023-04-29T05:02:22;99639.47;;;7.08;100.00
8069;BME280;4077;43.702;24.896;2023-04-29T05:04:47;99645.84;;;7.23;100.00
8069;BME280;4077;43.702;24.896;2023-04-29T05:07:13;99645.53;;;7.42;100.00
8069;BME280;4077;43.702;24.896;2023-04-29T05:09:38;99639.88;;;7.55;100.00
8069;BME280;4077;43.702;24.896;2023-04-29T05:12:04;99665.25;;;7.76;100.00
8069;BME280;4077;43.702;24.896;2023-04-29T05:14:29;99672.38;;;7.88;100.00
8069;BME280;4077;43.702;24.896;2023-04-29T05:16:58;99663.97;;;7.95;100.00
8069;BME280;4077;43.702;24.896;2023-04-29T05:19:24;99665.69;;;7.94;100.00
8069;BME280;4077;43.702;24.896;2023-04-29T05:21:49;99666.78;;;8.04;100.00
8069;BME280;4077;43.702;24.896;2023-04-29T05:24:15;99665.63;;;8.28;100.00
8069;BME280;4077;43.702;24.896;2023-04-29T05:26:41;99668.72;;;8.49;100.00
8069;BME280;4077;43.702;24.896;2023-04-29T05:29:08;99664.69;;;8.60;100.00
8069;BME280;4077;43.702;24.896;2023-04-29T05:31:34;99673.59;;;8.74;100.00
8069;BME280;4077;43.702;24.896;2023-04-29T05:34:00;99678.13;;;8.86;100.00
8069;BME280;4077;43.702;24.896;2023-04-29T05:36:25;99673.06;;;8.91;100.00
8069;BME280;4077;43.702;24.896;2023-04-29T05:38:52;99676.28;;;9.21;100.00
8069;BME280;4077;43.702;24.896;2023-04-29T05:41:17;99670.41;;;9.28;100.00
8069;BME280;4077;43.702;24.896;2023-04-29T05:43:43;99677.66;;;9.48;100.00
8069;BME280;4077;43.702;24.896;2023-04-29T05:46:08;99660.63;;;9.57;100.00
8069;BME280;4077;43.702;24.896;2023-04-29T05:48:34;99680.13;;;9.90;100.00
8069;BME280;4077;43.702;24.896;2023-04-29T05:50:59;99685.00;;;10.23;100.00
8069;BME280;4077;43.702;24.896;2023-04-29T05:53:25;99678.25;;;10.31;100.00
8069;BME280;4077;43.702;24.896;2023-04-29T05:55:50;99675.31;;;10.66;100.00
8069;BME280;4077;43.702;24.896;2023-04-29T05:58:16;99667.09;;;10.98;100.00
8069;BME280;4077;43.702;24.896;2023-04-29T06:00:41;99669.09;;;11.18;100.00
8069;BME280;4077;43.702;24.896;2023-04-29T06:03:08;99671.97;;;11.44;100.00
8069;BME280;4077;43.702;24.896;2023-04-29T06:05:35;99667.06;;;11.67;100.00
8069;BME280;4077;43.702;24.896;2023-04-29T06:08:01;99679.53;;;12.10;100.00
8069;BME280;4077;43.702;24.896;2023-04-29T06:10:27;99686.63;;;12.35;96.74
8069;BME280;4077;43.702;24.896;2023-04-29T06:12:52;99680.66;;;12.44;92.49
8069;BME280;4077;43.702;24.896;2023-04-29T06:15:18;99673.81;;;12.50;90.33
8069;BME280;4077;43.702;24.896;2023-04-29T06:17:43;99673.19;;;12.91;88.05
8069;BME280;4077;43.702;24.896;2023-04-29T06:20:09;99678.53;;;13.25;84.30
8069;BME280;4077;43.702;24.896;2023-04-29T06:22:35;99677.69;;;13.32;81.00
8069;BME280;4077;43.702;24.896;2023-04-29T06:25:00;99675.13;;;13.52;79.45
8069;BME280;4077;43.702;24.896;2023-04-29T06:27:26;99689.91;;;13.79;75.91
8069;BME280;4077;43.702;24.896;2023-04-29T06:29:52;99693.38;;;13.96;75.16
8069;BME280;4077;43.702;24.896;2023-04-29T06:32:17;99690.81;;;14.23;72.98
8069;BME280;4077;43.702;24.896;2023-04-29T06:34:43;99689.91;;;14.40;71.23
8069;BME280;4077;43.702;24.896;2023-04-29T06:37:09;99684.72;;;14.73;70.82
8069;BME280;4077;43.702;24.896;2023-04-29T06:39:35;99681.22;;;14.90;69.29
8069;BME280;4077;43.702;24.896;2023-04-29T06:42:00;99682.09;;;14.84;68.19
8069;BME280;4077;43.702;24.896;2023-04-29T06:44:26;99693.38;;;14.75;68.01
8069;BME280;4077;43.702;24.896;2023-04-29T06:46:51;99686.47;;;14.47;69.52
8069;BME280;4077;43.702;24.896;2023-04-29T06:49:17;99683.03;;;14.46;69.21
8069;BME280;4077;43.702;24.896;2023-04-29T06:51:42;99686.47;;;14.38;69.34
8069;BME280;4077;43.702;24.896;2023-04-29T06:54:08;99695.13;;;14.58;67.05
8069;BME280;4077;43.702;24.896;2023-04-29T06:56:33;99685.59;;;14.68;67.17
8069;BME280;4077;43.702;24.896;2023-04-29T06:58:59;99687.31;;;14.73;67.16
8069;BME280;4077;43.702;24.896;2023-04-29T07:01:24;99690.72;;;14.94;66.83
8069;BME280;4077;43.702;24.896;2023-04-29T07:03:50;99689.75;;;15.22;65.37
8069;BME280;4077;43.702;24.896;2023-04-29T07:06:16;99693.13;;;15.46;65.46
8069;BME280;4077;43.702;24.896;2023-04-29T07:08:41;99699.09;;;15.68;64.36
8069;BME280;4077;43.702;24.896;2023-04-29T07:11:06;99700.84;;;15.67;63.35
8069;BME280;4077;43.702;24.896;2023-04-29T07:13:32;99687.84;;;15.55;62.73
8069;BME280;4077;43.702;24.896;2023-04-29T07:15:57;99702.56;;;15.67;64.37
8069;BME280;4077;43.702;24.896;2023-04-29T07:18:23;99696.47;;;15.72;64.10
8069;BME280;4077;43.702;24.896;2023-04-29T07:20:48;99701.34;;;16.21;62.39
8069;BME280;4077;43.702;24.896;2023-04-29T07:23:15;99700.22;;;16.47;62.21
8069;BME280;4077;43.702;24.896;2023-04-29T07:25:40;99700.06;;;16.65;60.70
8069;BME280;4077;43.702;24.896;2023-04-29T07:28:06;99707.94;;;16.59;59.21
8069;BME280;4077;43.702;24.896;2023-04-29T07:30:33;99704.53;;;16.51;58.37
8069;BME280;4077;43.702;24.896;2023-04-29T07:32:58;99702.25;;;16.11;58.98
8069;BME280;4077;43.702;24.896;2023-04-29T07:35:24;99703.78;;;16.41;58.36
8069;BME280;4077;43.702;24.896;2023-04-29T07:37:50;99707.44;;;16.20;57.69
8069;BME280;4077;43.702;24.896;2023-04-29T07:40:16;99705.66;;;16.22;57.32
8069;BME280;4077;43.702;24.896;2023-04-29T07:42:42;99684.25;;;15.86;57.37
8069;BME280;4077;43.702;24.896;2023-04-29T07:45:07;99695.44;;;15.96;57.12
8069;BME280;4077;43.702;24.896;2023-04-29T07:47:33;99694.97;;;16.51;57.12
8069;BME280;4077;43.702;24.896;2023-04-29T07:49:58;99700.97;;;16.59;56.72
8069;BME280;4077;43.702;24.896;2023-04-29T07:52:24;99692.63;;;16.22;57.74
8069;BME280;4077;43.702;24.896;2023-04-29T07:54:49;99690.66;;;16.49;57.08
8069;BME280;4077;43.702;24.896;2023-04-29T07:57:15;99701.84;;;16.58;55.18
8069;BME280;4077;43.702;24.896;2023-04-29T07:59:40;99701.84;;;16.58;56.04
8069;BME280;4077;43.702;24.896;2023-04-29T08:02:06;99701.03;;;16.55;54.59
8069;BME280;4077;43.702;24.896;2023-04-29T08:04:32;99686.28;;;16.52;52.08
8069;BME280;4077;43.702;24.896;2023-04-29T08:06:57;99698.31;;;16.70;53.65
8069;BME280;4077;43.702;24.896;2023-04-29T08:09:22;99694.75;;;16.79;53.61
8069;BME280;4077;43.702;24.896;2023-04-29T08:11:48;99692.13;;;16.79;52.83
8069;BME280;4077;43.702;24.896;2023-04-29T08:14:13;99686.94;;;16.77;54.65
8069;BME280;4077;43.702;24.896;2023-04-29T08:16:39;99699.09;;;16.78;53.33
8069;BME280;4077;43.702;24.896;2023-04-29T08:19:05;99671.31;;;16.76;52.63
8069;BME280;4077;43.702;24.896;2023-04-29T08:21:30;99684.19;;;16.88;52.40
8069;BME280;4077;43.702;24.896;2023-04-29T08:23:56;99690.63;;;16.55;54.20
8069;BME280;4077;43.702;24.896;2023-04-29T08:26:22;99691.34;;;16.69;51.63
8069;BME280;4077;43.702;24.896;2023-04-29T08:28:48;99673.72;;;16.92;52.42
8069;BME280;4077;43.702;24.896;2023-04-29T08:31:20;99682.38;;;16.98;52.28
8069;BME280;4077;43.702;24.896;2023-04-29T08:33:46;99672.44;;;17.27;53.53
8069;BME280;4077;43.702;24.896;2023-04-29T08:36:11;99686.66;;;17.02;49.05
8069;BME280;4077;43.702;24.896;2023-04-29T08:38:37;99683.63;;;17.37;50.26
8069;BME280;4077;43.702;24.896;2023-04-29T08:41:02;99677.78;;;17.18;51.79
8069;BME280;4077;43.702;24.896;2023-04-29T08:43:28;99679.56;;;17.13;51.61
8069;BME280;4077;43.702;24.896;2023-04-29T08:45:54;99680.38;;;17.18;52.89
8069;BME280;4077;43.702;24.896;2023-04-29T08:48:22;99655.91;;;17.28;53.61
8069;BME280;4077;43.702;24.896;2023-04-29T08:50:47;99677.72;;;17.24;51.76
8069;BME280;4077;43.702;24.896;2023-04-29T08:53:13;99670.66;;;17.29;52.40
8069;BME280;4077;43.702;24.896;2023-04-29T08:55:44;99669.78;;;17.32;52.47
8069;BME280;4077;43.702;24.896;2023-04-29T08:58:10;99669.91;;;17.22;52.33
8069;BME280;4077;43.702;24.896;2023-04-29T09:00:37;99668.94;;;17.28;52.06
8069;BME280;4077;43.702;24.896;2023-04-29T09:05:40;99668.78;;;17.40;52.06
8069;BME280;4077;43.702;24.896;2023-04-29T09:08:07;99674.06;;;17.36;51.57
8069;BME280;4077;43.702;24.896;2023-04-29T09:10:35;99655.75;;;17.40;49.80
8069;BME280;4077;43.702;24.896;2023-04-29T09:13:01;99661.50;;;17.62;50.26
8069;BME280;4077;43.702;24.896;2023-04-29T09:15:26;99658.94;;;17.61;50.94
8069;BME280;4077;43.702;24.896;2023-04-29T09:17:53;99668.38;;;17.69;50.68
8069;BME280;4077;43.702;24.896;2023-04-29T09:25:16;99658.63;;;17.85;49.37
8069;BME280;4077;43.702;24.896;2023-04-29T09:27:42;99650.38;;;18.10;48.55
8069;BME280;4077;43.702;24.896;2023-04-29T09:30:08;99639.09;;;18.08;48.01
8069;BME280;4077;43.702;24.896;2023-04-29T09:32:34;99645.66;;;18.79;46.86
8069;BME280;4077;43.702;24.896;2023-04-29T09:35:25;99663.00;;;20.06;45.68
8069;BME280;4077;43.702;24.896;2023-04-29T09:38:06;99664.28;;;20.23;42.23
8069;BME280;4077;43.702;24.896;2023-04-29T09:40:33;99654.38;;;20.35;43.08
8069;BME280;4077;43.702;24.896;2023-04-29T09:42:59;99656.72;;;20.47;43.61
8069;BME280;4077;43.702;24.896;2023-04-29T09:45:35;99637.59;;;20.08;44.60
8069;BME280;4077;43.702;24.896;2023-04-29T09:48:05;99634.88;;;19.77;45.48
8069;BME280;4077;43.702;24.896;2023-04-29T09:50:31;99635.06;;;19.67;44.74
8069;BME280;4077;43.702;24.896;2023-04-29T09:52:58;99631.56;;;18.88;45.00
8069;BME280;4077;43.702;24.896;2023-04-29T09:55:24;99625.84;;;18.65;45.74
8069;BME280;4077;43.702;24.896;2023-04-29T09:57:51;99620.84;;;18.52;46.20
8069;BME280;4077;43.702;24.896;2023-04-29T10:00:17;99616.91;;;18.30;46.35
8069;BME280;4077;43.702;24.896;2023-04-29T10:02:45;99611.81;;;18.24;47.19
8069;BME280;4077;43.702;24.896;2023-04-29T10:05:15;99616.88;;;18.33;47.37
8069;BME280;4077;43.702;24.896;2023-04-29T10:07:41;99616.91;;;18.30;46.14
8069;BME280;4077;43.702;24.896;2023-04-29T10:10:08;99602.97;;;18.33;46.00
8069;BME280;4077;43.702;24.896;2023-04-29T10:12:35;99611.66;;;18.33;46.46
8069;BME280;4077;43.702;24.896;2023-04-29T10:15:02;99610.47;;;18.49;46.51
8069;BME280;4077;43.702;24.896;2023-04-29T10:18:08;99600.84;;;18.51;46.90
8069;BME280;4077;43.702;24.896;2023-04-29T10:20:40;99598.34;;;18.47;48.35
8069;BME280;4077;43.702;24.896;2023-04-29T10:23:12;99602.44;;;18.58;46.08
8069;BME280;4077;43.702;24.896;2023-04-29T10:25:39;99602.31;;;18.68;46.83
8069;BME280;4077;43.702;24.896;2023-04-29T10:28:09;99596.69;;;18.86;46.62
8069;BME280;4077;43.702;24.896;2023-04-29T10:30:39;99597.84;;;18.73;46.35
8069;BME280;4077;43.702;24.896;2023-04-29T10:33:09;99594.63;;;18.57;45.59
8069;BME280;4077;43.702;24.896;2023-04-29T10:35:36;99598.19;;;18.54;46.03
8069;BME280;4077;43.702;24.896;2023-04-29T10:38:07;99583.50;;;18.47;45.36
8069;BME280;4077;43.702;24.896;2023-04-29T10:40:43;99596.22;;;18.64;46.24
8069;BME280;4077;43.702;24.896;2023-04-29T10:43:12;99596.81;;;18.80;44.84
8069;BME280;4077;43.702;24.896;2023-04-29T10:45:38;99589.75;;;18.85;45.63
8069;BME280;4077;43.702;24.896;2023-04-29T10:53:17;99589.56;;;18.94;43.58
8069;BME280;4077;43.702;24.896;2023-04-29T10:55:56;99588.50;;;19.03;43.74
8069;BME280;4077;43.702;24.896;2023-04-29T10:58:42;99590.09;;;19.10;42.42
8069;BME280;4077;43.702;24.896;2023-04-29T11:01:10;99590.28;;;19.02;42.44
8069;BME280;4077;43.702;24.896;2023-04-29T11:06:44;99570.25;;;19.00;42.18
8069;BME280;4077;43.702;24.896;2023-04-29T11:09:25;99577.44;;;18.90;42.85
8069;BME280;4077;43.702;24.896;2023-04-29T11:14:30;99569.78;;;18.81;41.69
8069;BME280;4077;43.702;24.896;2023-04-29T11:16:58;99562.72;;;18.84;41.48
8069;BME280;4077;43.702;24.896;2023-04-29T11:19:50;99561.44;;;19.04;41.28
8069;BME280;4077;43.702;24.896;2023-04-29T11:24:56;99565.78;;;19.44;41.21
8069;BME280;4077;43.702;24.896;2023-04-29T11:27:24;99561.81;;;19.26;40.98
8069;BME280;4077;43.702;24.896;2023-04-29T11:29:54;99561.34;;;19.08;41.27
8069;BME280;4077;43.702;24.896;2023-04-29T11:32:23;99551.47;;;18.81;41.77
8069;BME280;4077;43.702;24.896;2023-04-29T11:34:50;99549.00;;;18.73;42.01
8069;BME280;4077;43.702;24.896;2023-04-29T11:37:23;99548.22;;;18.70;41.56
8069;BME280;4077;43.702;24.896;2023-04-29T11:39:49;99546.59;;;18.63;42.35
8069;BME280;4077;43.702;24.896;2023-04-29T11:42:20;99539.06;;;18.46;42.22
8069;BME280;4077;43.702;24.896;2023-04-29T11:44:46;99536.63;;;18.38;42.79
8069;BME280;4077;43.702;24.896;2023-04-29T11:47:11;99533.81;;;18.02;42.90
8069;BME280;4077;43.702;24.896;2023-04-29T11:49:38;99537.81;;;18.22;42.89
8069;BME280;4077;43.702;24.896;2023-04-29T11:52:03;99526.44;;;18.24;42.61
8069;BME280;4077;43.702;24.896;2023-04-29T11:54:29;99537.63;;;18.31;42.49
8069;BME280;4077;43.702;24.896;2023-04-29T11:56:55;99540.00;;;18.43;42.34
8069;BME280;4077;43.702;24.896;2023-04-29T11:59:22;99527.75;;;18.47;42.64
8069;BME280;4077;43.702;24.896;2023-04-29T12:01:51;99527.41;;;18.64;42.42
8069;BME280;4077;43.702;24.896;2023-04-29T12:04:17;99521.03;;;18.77;42.25
8069;BME280;4077;43.702;24.896;2023-04-29T12:06:44;99520.34;;;18.69;42.20
8069;BME280;4077;43.702;24.896;2023-04-29T12:09:09;99514.53;;;18.54;41.29
8069;BME280;4077;43.702;24.896;2023-04-29T12:11:38;99512.56;;;18.67;42.12
8069;BME280;4077;43.702;24.896;2023-04-29T12:14:03;99510.19;;;18.53;42.15
8069;BME280;4077;43.702;24.896;2023-04-29T12:16:33;99511.91;;;18.54;42.51
8069;BME280;4077;43.702;24.896;2023-04-29T12:18:59;99499.31;;;18.30;42.56
8069;BME280;4077;43.702;24.896;2023-04-29T12:21:25;99508.84;;;18.34;43.06
8069;BME280;4077;43.702;24.896;2023-04-29T12:23:52;99503.66;;;18.31;42.63
8069;BME280;4077;43.702;24.896;2023-04-29T12:26:17;99496.47;;;18.42;42.46
8069;BME280;4077;43.702;24.896;2023-04-29T12:28:45;99497.25;;;18.46;42.25
8069;BME280;4077;43.702;24.896;2023-04-29T12:31:14;99499.94;;;18.43;42.09
8069;BME280;4077;43.702;24.896;2023-04-29T12:33:42;99490.19;;;18.51;42.27
8069;BME280;4077;43.702;24.896;2023-04-29T12:36:17;99485.88;;;18.48;42.04
8069;BME280;4077;43.702;24.896;2023-04-29T12:38:43;99485.25;;;18.37;41.93
8069;BME280;4077;43.702;24.896;2023-04-29T12:41:09;99484.41;;;18.35;42.38
8069;BME280;4077;43.702;24.896;2023-04-29T12:43:37;99480.16;;;18.29;42.48
8069;BME280;4077;43.702;24.896;2023-04-29T12:46:04;99486.09;;;18.39;42.72
8069;BME280;4077;43.702;24.896;2023-04-29T12:48:36;99479.19;;;18.35;42.59
8069;BME280;4077;43.702;24.896;2023-04-29T12:51:19;99480.59;;;18.51;41.86
8069;BME280;4077;43.702;24.896;2023-04-29T12:53:45;99479.00;;;18.44;41.78
8069;BME280;4077;43.702;24.896;2023-04-29T12:56:11;99467.94;;;18.31;41.70
8069;BME280;4077;43.702;24.896;2023-04-29T12:58:37;99477.97;;;18.53;42.10
8069;BME280;4077;43.702;24.896;2023-04-29T13:01:02;99479.56;;;18.58;41.95
8069;BME280;4077;43.702;24.896;2023-04-29T13:03:28;99474.34;;;18.58;42.00
8069;BME280;4077;43.702;24.896;2023-04-29T13:05:53;99467.16;;;18.70;41.97
8069;BME280;4077;43.702;24.896;2023-04-29T13:08:19;99471.56;;;18.68;41.31
8069;BME280;4077;43.702;24.896;2023-04-29T13:10:45;99464.63;;;18.67;41.06
8069;BME280;4077;43.702;24.896;2023-04-29T13:13:10;99462.00;;;18.67;41.27
8069;BME280;4077;43.702;24.896;2023-04-29T13:15:36;99464.78;;;18.57;40.87
8069;BME280;4077;43.702;24.896;2023-04-29T13:18:03;99451.75;;;18.56;40.62
8069;BME280;4077;43.702;24.896;2023-04-29T13:20:29;99446.91;;;18.38;40.79
8069;BME280;4077;43.702;24.896;2023-04-29T13:22:54;99456.44;;;18.40;41.05
8069;BME280;4077;43.702;24.896;2023-04-29T13:25:20;99453.75;;;18.43;41.59
8069;BME280;4077;43.702;24.896;2023-04-29T13:27:45;99448.72;;;18.34;40.99
8069;BME280;4077;43.702;24.896;2023-04-29T13:30:11;99455.72;;;18.34;41.18
8069;BME280;4077;43.702;24.896;2023-04-29T13:32:36;99447.88;;;18.32;41.75
8069;BME280;4077;43.702;24.896;2023-04-29T13:35:05;99452.06;;;18.41;41.60
8069;BME280;4077;43.702;24.896;2023-04-29T13:37:30;99452.84;;;18.44;41.35
8069;BME280;4077;43.702;24.896;2023-04-29T13:39:56;99450.19;;;18.47;42.05
8069;BME280;4077;43.702;24.896;2023-04-29T13:42:21;99439.78;;;18.44;41.78